Time;durP1;ratioP1;P1;durP2;ratioP2;P2;SDS_P1;SDS_P2;PMS_P1;PMS_P2;Temp;Humidity;BMP_temperature;BMP_pressure;BME280_temperature;BME280_humidity;BME280_pressure;Samples;Min_cycle;Max_cycle;Signal;HPM_P1;HPM_P2
2022/04/28 00:00:10;;;;;;;10.83;9.80;;;12.00;81.20;;;;;;5078662;28;20182;-89
2022/04/28 00:02:36;;;;;;;10.20;9.20;;;11.90;81.70;;;;;;5079555;28;20917;-89
2022/04/28 00:05:03;;;;;;;10.27;9.37;;;12.00;81.70;;;;;;5074487;28;20199;-89
2022/04/28 00:07:29;;;;;;;10.37;9.47;;;12.00;80.90;;;;;;5086903;28;20190;-88
2022/04/28 00:09:54;;;;;;;8.93;8.07;;;12.00;80.60;;;;;;5073840;28;20680;-88
2022/04/28 00:12:20;;;;;;;10.43;9.37;;;12.00;80.60;;;;;;5076810;28;20287;-88
2022/04/28 00:14:46;;;;;;;10.07;9.10;;;12.00;80.70;;;;;;5065933;28;20223;-88
2022/04/28 00:17:11;;;;;;;10.20;9.33;;;11.80;81.20;;;;;;5074185;28;20222;-88
2022/04/28 00:19:40;;;;;;;9.47;8.67;;;11.40;83.00;;;;;;5077576;28;20195;-89
2022/04/28 00:22:05;;;;;;;9.67;8.77;;;11.20;85.50;;;;;;5098636;28;20203;-89
2022/04/28 00:24:31;;;;;;;10.57;9.60;;;11.10;86.30;;;;;;5110991;28;20186;-88
2022/04/28 00:26:57;;;;;;;10.40;9.50;;;10.90;87.70;;;;;;5063928;28;20788;-88
2022/04/28 00:29:25;;;;;;;10.50;9.50;;;10.90;88.00;;;;;;5080510;28;20604;-88
2022/04/28 00:31:51;;;;;;;11.97;9.17;;;10.90;87.60;;;;;;5095778;28;20186;-88
2022/04/28 00:34:17;;;;;;;10.63;9.47;;;10.70;88.40;;;;;;5094993;28;20219;-88
2022/04/28 00:36:42;;;;;;;9.70;8.70;;;10.70;89.00;;;;;;5091370;28;20241;-88
2022/04/28 00:39:08;;;;;;;10.87;9.87;;;10.70;89.40;;;;;;5086475;28;20757;-88
2022/04/28 00:41:34;;;;;;;10.57;9.67;;;10.70;89.30;;;;;;5077472;28;20283;-88
2022/04/28 00:44:00;;;;;;;10.07;9.13;;;10.80;90.10;;;;;;5084955;28;20673;-88
2022/04/28 00:46:26;;;;;;;10.73;9.83;;;11.00;88.60;;;;;;5093180;28;20220;-88
2022/04/28 00:51:36;;;;;;;10.93;9.70;;;11.40;86.00;;;;;;5078120;28;20882;-88
2022/04/28 00:54:04;;;;;;;11.00;9.87;;;11.30;84.80;;;;;;5093283;28;20230;-88
2022/04/28 00:56:30;;;;;;;10.33;9.33;;;11.40;85.00;;;;;;5078951;28;20233;-87
2022/04/28 00:59:02;;;;;;;10.27;9.27;;;11.40;84.60;;;;;;5082805;28;20194;-88
2022/04/28 01:01:31;;;;;;;11.87;9.90;;;11.40;83.20;;;;;;5081616;28;20177;-88
2022/04/28 01:03:58;;;;;;;11.37;9.60;;;11.20;84.10;;;;;;5091914;28;20270;-88
2022/04/28 01:06:23;;;;;;;10.70;9.70;;;11.00;85.10;;;;;;5091222;28;20203;-88
2022/04/28 01:08:49;;;;;;;10.63;9.53;;;10.80;86.50;;;;;;5095706;28;20178;-88
2022/04/28 01:11:18;;;;;;;10.87;9.97;;;10.70;87.40;;;;;;5093903;28;20198;-88
2022/04/28 01:13:45;;;;;;;10.97;9.97;;;10.60;88.00;;;;;;5085141;28;20215;-88
2022/04/28 01:16:15;;;;;;;12.47;10.00;;;10.50;88.60;;;;;;5083110;28;20298;-88
2022/04/28 01:18:43;;;;;;;11.43;10.23;;;10.50;88.80;;;;;;5084165;28;20187;-88
2022/04/28 01:21:09;;;;;;;10.57;9.33;;;10.40;89.30;;;;;;5064082;28;20188;-88
2022/04/28 01:23:36;;;;;;;10.03;9.03;;;10.40;90.00;;;;;;5081250;28;20902;-88
2022/04/28 01:26:03;;;;;;;9.40;8.60;;;10.50;90.30;;;;;;5055212;28;20690;-88
2022/04/28 01:28:31;;;;;;;11.17;9.80;;;10.70;89.80;;;;;;5085669;28;20187;-88
2022/04/28 01:31:00;;;;;;;10.20;9.27;;;11.00;87.90;;;;;;5094651;28;20274;-88
2022/04/28 01:33:26;;;;;;;9.07;8.27;;;11.00;86.50;;;;;;5087971;28;20260;-88
2022/04/28 01:35:51;;;;;;;9.73;8.83;;;11.00;86.20;;;;;;5095797;28;20213;-88
2022/04/28 01:38:17;;;;;;;9.47;8.57;;;11.00;86.00;;;;;;5089404;28;20193;-88
2022/04/28 01:40:44;;;;;;;9.00;8.20;;;11.20;85.10;;;;;;5097750;28;20193;-88
2022/04/28 01:43:09;;;;;;;9.50;8.70;;;11.30;84.30;;;;;;5084489;28;20201;-88
2022/04/28 01:45:35;;;;;;;10.13;9.23;;;11.30;82.50;;;;;;5083025;28;20212;-88
2022/04/28 01:48:01;;;;;;;9.30;8.50;;;11.10;82.20;;;;;;5078039;28;20336;-88
2022/04/28 01:50:26;;;;;;;9.07;8.27;;;10.90;83.70;;;;;;5079192;28;20192;-88
2022/04/28 01:55:36;;;;;;;10.13;9.10;;;11.00;83.70;;;;;;5093024;28;20250;-88
2022/04/28 01:58:02;;;;;;;11.20;8.90;;;10.90;84.60;;;;;;5079457;28;20275;-88
2022/04/28 02:00:29;;;;;;;9.07;8.27;;;10.80;84.30;;;;;;5081307;28;20200;-88
2022/04/28 02:02:55;;;;;;;8.97;8.27;;;10.80;84.60;;;;;;5096264;28;20223;-88
2022/04/28 02:05:20;;;;;;;9.63;8.63;;;10.80;84.40;;;;;;5098692;28;20208;-88
2022/04/28 02:07:46;;;;;;;10.20;9.27;;;10.60;84.40;;;;;;5080346;28;20226;-88
2022/04/28 02:10:12;;;;;;;9.73;8.93;;;10.40;85.80;;;;;;5079053;28;20849;-88
2022/04/28 02:12:38;;;;;;;9.33;8.53;;;10.30;87.10;;;;;;5092036;28;20294;-88
2022/04/28 02:15:04;;;;;;;9.37;8.53;;;10.20;87.50;;;;;;5111167;28;20178;-88
2022/04/28 02:17:35;;;;;;;9.43;8.53;;;10.00;88.60;;;;;;5083958;28;20188;-88
2022/04/28 02:20:06;;;;;;;9.63;8.83;;;9.90;89.70;;;;;;5098652;28;20183;-88
2022/04/28 02:22:32;;;;;;;9.83;8.87;;;9.90;89.70;;;;;;5084149;28;20244;-88
2022/04/28 02:24:58;;;;;;;9.43;7.60;;;9.80;90.60;;;;;;5093080;28;20186;-88
2022/04/28 02:27:24;;;;;;;9.27;8.37;;;9.90;91.30;;;;;;5097549;28;20210;-88
2022/04/28 02:29:51;;;;;;;8.93;8.13;;;10.00;91.30;;;;;;5102271;28;20193;-88
2022/04/28 02:32:17;;;;;;;9.63;8.77;;;10.00;90.20;;;;;;5083361;28;20209;-88
2022/04/28 02:34:42;;;;;;;9.43;8.53;;;10.10;89.40;;;;;;5080136;28;20187;-88
2022/04/28 02:37:09;;;;;;;10.03;9.13;;;10.10;89.20;;;;;;5083055;28;20195;-87
2022/04/28 02:39:34;;;;;;;9.13;8.23;;;10.10;89.00;;;;;;5101664;28;20211;-88
2022/04/28 02:42:00;;;;;;;8.93;8.23;;;10.10;89.90;;;;;;5100853;28;20197;-87
2022/04/28 02:44:26;;;;;;;8.53;7.67;;;10.00;89.90;;;;;;5089801;28;20652;-88
2022/04/28 02:46:51;;;;;;;8.10;7.50;;;9.90;89.70;;;;;;5082499;28;20214;-88
2022/04/28 02:49:20;;;;;;;9.20;8.40;;;9.90;90.70;;;;;;5100548;28;20704;-87
2022/04/28 02:51:45;;;;;;;8.83;8.03;;;9.80;91.30;;;;;;5101650;28;20202;-88
2022/04/28 02:54:11;;;;;;;8.37;7.63;;;9.80;91.70;;;;;;5092800;28;20668;-88
2022/04/28 02:56:37;;;;;;;9.30;8.40;;;9.90;92.20;;;;;;5081076;28;20225;-88
2022/04/28 02:59:03;;;;;;;9.10;8.30;;;10.00;91.20;;;;;;5101404;28;20198;-88
2022/04/28 03:01:29;;;;;;;8.80;8.00;;;10.00;90.70;;;;;;5090523;28;20186;-88
2022/04/28 03:03:58;;;;;;;8.40;7.63;;;10.10;91.00;;;;;;5100747;28;20596;-88
2022/04/28 03:11:53;;;;;;;7.93;7.20;;;10.20;89.00;;;;;;5110257;28;20706;-88
2022/04/28 03:14:19;;;;;;;8.80;7.90;;;10.30;88.20;;;;;;5099963;28;20219;-88
2022/04/28 03:16:45;;;;;;;8.00;7.40;;;10.30;87.70;;;;;;5092732;28;20283;-88
2022/04/28 03:19:11;;;;;;;8.17;7.57;;;10.30;87.20;;;;;;5087310;28;20205;-88
2022/04/28 03:21:37;;;;;;;8.60;7.80;;;10.20;87.20;;;;;;5102685;28;20191;-88
2022/04/28 03:24:03;;;;;;;8.53;7.83;;;10.00;88.30;;;;;;5093953;28;20184;-88
2022/04/28 03:26:29;;;;;;;8.43;7.73;;;10.10;89.00;;;;;;5088366;28;20208;-88
2022/04/28 03:28:56;;;;;;;8.93;8.20;;;10.20;88.10;;;;;;5080248;28;20207;-88
2022/04/28 03:31:22;;;;;;;8.23;7.63;;;10.10;87.90;;;;;;5096548;28;20192;-87
2022/04/28 03:33:48;;;;;;;9.10;8.30;;;10.10;88.60;;;;;;5093279;28;20208;-88
2022/04/28 03:38:58;;;;;;;9.60;7.73;;;10.10;87.90;;;;;;5083786;28;20194;-88
2022/04/28 03:41:24;;;;;;;8.73;7.93;;;10.10;87.70;;;;;;5082554;28;20196;-88
2022/04/28 03:43:50;;;;;;;9.00;8.20;;;10.00;88.60;;;;;;5082493;28;20190;-87
2022/04/28 03:46:16;;;;;;;9.83;8.93;;;10.10;88.60;;;;;;5100506;28;20198;-87
2022/04/28 03:48:42;;;;;;;9.33;8.47;;;10.00;88.40;;;;;;5081351;28;20214;-87
2022/04/28 03:51:08;;;;;;;9.20;8.30;;;9.90;89.30;;;;;;5087107;28;20232;-87
2022/04/28 03:53:34;;;;;;;9.40;8.50;;;9.80;89.90;;;;;;5096885;28;20210;-87
2022/04/28 03:56:00;;;;;;;9.77;8.87;;;9.90;90.70;;;;;;5101183;28;20211;-87
2022/04/28 03:58:26;;;;;;;8.17;7.47;;;9.90;90.80;;;;;;5082408;28;20203;-87
2022/04/28 04:00:52;;;;;;;11.13;10.03;;;10.10;90.40;;;;;;5098649;28;20167;-87
2022/04/28 04:03:20;;;;;;;11.83;10.67;;;10.00;89.60;;;;;;5078867;28;20239;-87
2022/04/28 04:05:47;;;;;;;9.83;9.03;;;10.00;89.10;;;;;;5097035;28;20198;-87
2022/04/28 04:08:15;;;;;;;10.07;9.27;;;9.90;89.60;;;;;;5085068;28;20186;-87
2022/04/28 04:10:41;;;;;;;10.03;9.23;;;9.80;90.10;;;;;;5107094;28;20201;-87
2022/04/28 04:13:08;;;;;;;10.90;10.10;;;9.60;90.30;;;;;;5086534;28;20212;-87
2022/04/28 04:15:33;;;;;;;10.23;9.37;;;9.50;93.00;;;;;;5056822;28;20275;-87
2022/04/28 04:18:00;;;;;;;11.00;10.10;;;9.40;93.20;;;;;;5084760;28;20217;-87
2022/04/28 04:20:27;;;;;;;11.07;10.07;;;9.20;95.40;;;;;;5096229;28;20179;-87
2022/04/28 04:22:53;;;;;;;10.73;9.40;;;9.10;97.40;;;;;;5101701;28;20175;-87
2022/04/28 04:25:19;;;;;;;10.57;9.67;;;9.00;98.30;;;;;;5096978;28;20212;-87
2022/04/28 04:27:45;;;;;;;11.17;10.07;;;9.10;98.20;;;;;;5090017;28;20179;-87
2022/04/28 04:32:59;;;;;;;11.77;10.57;;;9.20;97.50;;;;;;5086694;28;20253;-87
2022/04/28 04:35:25;;;;;;;10.87;9.97;;;9.10;98.10;;;;;;5061019;28;20196;-87
2022/04/28 04:37:52;;;;;;;9.20;8.50;;;9.10;98.60;;;;;;5079203;28;20655;-87
2022/04/28 04:40:18;;;;;;;11.37;10.37;;;9.00;98.80;;;;;;5090939;28;20201;-87
2022/04/28 04:42:44;;;;;;;12.40;10.60;;;9.00;98.30;;;;;;5082364;28;20179;-87
2022/04/28 04:45:10;;;;;;;12.33;10.70;;;9.00;99.50;;;;;;5101532;28;20209;-87
2022/04/28 04:47:36;;;;;;;11.27;10.37;;;9.10;99.20;;;;;;5084834;28;20187;-87
2022/04/28 04:50:04;;;;;;;11.20;10.23;;;9.00;99.60;;;;;;5104042;28;20239;-87
2022/04/28 04:52:30;;;;;;;12.20;10.50;;;9.10;99.00;;;;;;5102773;28;20699;-87
2022/04/28 04:54:56;;;;;;;13.10;10.90;;;8.90;99.90;;;;;;5102953;28;20689;-87
2022/04/28 04:57:22;;;;;;;10.40;9.47;;;8.70;99.90;;;;;;5104589;28;20206;-87
2022/04/28 04:59:47;;;;;;;11.70;10.50;;;8.80;99.90;;;;;;5098151;28;20189;-87
2022/04/28 05:02:16;;;;;;;11.57;10.37;;;8.80;99.90;;;;;;5103316;28;20232;-88
2022/04/28 05:04:42;;;;;;;12.87;11.63;;;8.90;99.90;;;;;;5088688;28;20199;-86
2022/04/28 05:07:08;;;;;;;12.97;11.77;;;8.80;99.90;;;;;;5124679;28;20214;-87
2022/04/28 05:09:34;;;;;;;13.97;12.53;;;8.70;99.90;;;;;;5106784;28;20252;-87
2022/04/28 05:11:59;;;;;;;12.97;11.63;;;8.60;99.90;;;;;;5117961;28;20226;-87
2022/04/28 05:14:25;;;;;;;12.17;10.93;;;8.60;99.90;;;;;;5104364;28;20233;-87
2022/04/28 05:16:51;;;;;;;12.80;11.60;;;8.70;99.90;;;;;;5063212;28;20259;-87
2022/04/28 05:19:17;;;;;;;12.47;11.20;;;8.70;99.90;;;;;;5090578;28;20776;-87
2022/04/28 05:21:42;;;;;;;13.67;12.27;;;8.70;99.90;;;;;;5088836;28;20832;-87
2022/04/28 05:24:08;;;;;;;17.13;15.43;;;8.70;99.90;;;;;;5095598;28;20183;-87
2022/04/28 05:26:33;;;;;;;16.67;14.93;;;8.70;99.90;;;;;;5085412;28;20207;-87
2022/04/28 05:28:59;;;;;;;14.27;12.97;;;8.80;99.90;;;;;;5086622;28;20192;-87
2022/04/28 05:31:25;;;;;;;14.00;12.77;;;8.70;99.90;;;;;;5082912;28;20278;-87
2022/04/28 05:33:50;;;;;;;11.73;10.70;;;8.80;99.90;;;;;;5067179;28;20294;-87
2022/04/28 05:36:16;;;;;;;13.57;11.63;;;8.80;99.90;;;;;;5103050;28;20799;-87
2022/04/28 05:38:43;;;;;;;12.87;11.73;;;8.80;99.90;;;;;;5103371;28;20179;-87
2022/04/28 05:41:09;;;;;;;17.83;13.23;;;8.90;99.90;;;;;;5095174;28;20202;-87
2022/04/28 05:46:21;;;;;;;12.47;9.90;;;9.00;99.90;;;;;;5086687;28;20222;-87
2022/04/28 05:48:47;;;;;;;10.97;9.87;;;9.10;99.90;;;;;;5078784;28;20222;-87
2022/04/28 05:51:13;;;;;;;11.03;9.93;;;9.20;99.90;;;;;;5080548;28;20179;-87
2022/04/28 05:53:39;;;;;;;11.30;10.27;;;9.10;99.90;;;;;;5101439;28;20237;-87
2022/04/28 05:56:06;;;;;;;11.33;10.27;;;9.10;99.90;;;;;;5084061;28;20218;-87
2022/04/28 05:58:32;;;;;;;11.63;10.53;;;9.20;99.90;;;;;;5087373;28;20182;-87
2022/04/28 06:00:59;;;;;;;11.43;10.23;;;9.20;99.90;;;;;;5106030;28;20210;-87
2022/04/28 06:03:25;;;;;;;11.47;10.37;;;9.30;99.90;;;;;;5088937;28;20194;-87
2022/04/28 06:05:50;;;;;;;12.37;11.30;;;9.40;99.90;;;;;;5104981;28;20298;-87
2022/04/28 06:08:16;;;;;;;14.30;10.27;;;9.40;99.90;;;;;;5091088;28;20198;-87
2022/04/28 06:10:42;;;;;;;11.43;10.43;;;9.60;99.90;;;;;;5101736;28;20210;-87
2022/04/28 06:13:08;;;;;;;11.77;10.57;;;9.60;99.90;;;;;;5104263;28;20210;-87
2022/04/28 06:15:34;;;;;;;11.13;10.13;;;9.70;99.90;;;;;;5101801;28;20202;-87
2022/04/28 06:18:03;;;;;;;11.50;9.97;;;9.80;99.90;;;;;;5097868;28;20215;-87
2022/04/28 06:20:28;;;;;;;11.63;10.57;;;9.80;99.60;;;;;;5081168;28;20228;-87
2022/04/28 06:22:54;;;;;;;10.90;9.80;;;9.90;99.90;;;;;;5082883;28;20691;-87
2022/04/28 06:25:20;;;;;;;11.97;10.40;;;10.00;99.90;;;;;;5083196;28;20218;-87
2022/04/28 06:27:45;;;;;;;15.07;11.60;;;10.10;99.10;;;;;;5070792;28;20210;-86
2022/04/28 06:30:18;;;;;;;11.03;10.03;;;10.20;97.50;;;;;;5100258;28;20177;-87
2022/04/28 06:32:44;;;;;;;11.17;10.10;;;10.20;98.10;;;;;;5088047;28;20246;-87
2022/04/28 06:35:09;;;;;;;12.87;10.63;;;10.30;98.40;;;;;;5081037;28;20187;-87
2022/04/28 06:37:39;;;;;;;11.23;10.23;;;10.50;97.30;;;;;;5094176;28;20187;-87
2022/04/28 06:40:05;;;;;;;11.17;10.00;;;10.60;96.10;;;;;;5088407;28;20192;-88
2022/04/28 06:42:31;;;;;;;11.30;10.30;;;10.80;94.90;;;;;;5083004;28;20397;-87
2022/04/28 06:44:57;;;;;;;10.53;9.47;;;10.90;94.60;;;;;;5074433;28;20783;-87
2022/04/28 06:47:23;;;;;;;11.83;10.60;;;10.90;93.80;;;;;;5091834;28;20250;-88
2022/04/28 06:49:48;;;;;;;10.70;9.67;;;11.00;93.20;;;;;;5099411;28;20262;-87
2022/04/28 06:52:14;;;;;;;10.80;9.80;;;11.20;92.60;;;;;;5065735;28;20183;-87
2022/04/28 06:54:40;;;;;;;10.47;9.57;;;11.30;92.20;;;;;;5083120;28;20215;-87
2022/04/28 06:57:06;;;;;;;10.33;9.30;;;11.40;90.30;;;;;;5126744;28;20198;-87
2022/04/28 06:59:32;;;;;;;11.23;9.87;;;11.40;89.80;;;;;;5123476;28;20193;-88
2022/04/28 07:01:57;;;;;;;11.80;9.53;;;11.40;89.50;;;;;;5115543;28;20188;-87
2022/04/28 07:04:23;;;;;;;11.33;9.60;;;11.50;89.60;;;;;;5100100;28;20183;-88
2022/04/28 07:06:49;;;;;;;10.13;9.23;;;11.60;89.10;;;;;;5076167;28;20208;-87
2022/04/28 07:09:15;;;;;;;10.83;9.83;;;11.70;88.70;;;;;;5091433;28;20184;-87
2022/04/28 07:11:40;;;;;;;9.87;8.87;;;11.80;87.50;;;;;;5076841;28;20199;-87
2022/04/28 07:14:06;;;;;;;9.53;8.50;;;11.90;86.10;;;;;;5073719;28;20198;-88
2022/04/28 07:16:32;;;;;;;9.97;9.07;;;11.90;86.20;;;;;;5052679;28;20809;-87
2022/04/28 07:18:57;;;;;;;10.13;9.13;;;11.90;87.00;;;;;;5072521;28;20246;-87
2022/04/28 07:21:23;;;;;;;9.87;9.03;;;12.20;86.40;;;;;;5082534;28;20187;-87
2022/04/28 07:23:49;;;;;;;10.93;9.93;;;12.20;86.00;;;;;;5087706;28;20304;-87
2022/04/28 07:26:18;;;;;;;9.27;8.57;;;12.40;85.10;;;;;;5086315;28;20292;-87
2022/04/28 07:28:43;;;;;;;10.30;9.37;;;12.40;84.40;;;;;;5086840;28;20193;-87
2022/04/28 07:31:10;;;;;;;10.20;9.30;;;12.60;84.20;;;;;;5090235;28;20215;-87
2022/04/28 07:33:36;;;;;;;10.27;9.27;;;12.60;83.70;;;;;;5078605;28;20220;-87
2022/04/28 07:36:01;;;;;;;10.17;9.27;;;12.70;83.40;;;;;;5082182;28;20220;-87
2022/04/28 07:38:27;;;;;;;10.23;9.27;;;12.80;82.60;;;;;;5090903;28;20185;-87
2022/04/28 07:40:54;;;;;;;9.83;9.03;;;12.90;82.60;;;;;;5072820;28;20770;-88
2022/04/28 07:43:20;;;;;;;9.97;9.17;;;13.00;81.20;;;;;;5090422;28;20229;-87
2022/04/28 07:45:47;;;;;;;10.13;9.27;;;12.90;82.90;;;;;;5076964;28;20307;-87
2022/04/28 07:48:12;;;;;;;9.17;8.33;;;13.10;81.40;;;;;;5072730;28;20292;-87
2022/04/28 07:50:38;;;;;;;9.37;8.43;;;13.20;81.20;;;;;;5071868;28;20262;-88
2022/04/28 07:53:04;;;;;;;8.93;8.03;;;13.30;79.70;;;;;;5073280;28;20241;-87
2022/04/28 07:55:30;;;;;;;8.90;8.07;;;13.50;80.90;;;;;;5092103;28;20217;-87
2022/04/28 07:57:55;;;;;;;8.90;8.17;;;13.60;78.80;;;;;;5092622;28;20234;-88
2022/04/28 08:00:21;;;;;;;9.43;8.57;;;13.70;77.70;;;;;;5106137;28;20186;-87
2022/04/28 08:02:47;;;;;;;8.77;8.07;;;13.80;76.60;;;;;;5089639;28;20271;-88
2022/04/28 08:05:12;;;;;;;8.23;7.50;;;14.10;75.20;;;;;;5091984;28;20179;-87
2022/04/28 08:07:38;;;;;;;8.67;7.87;;;14.20;75.40;;;;;;5091111;28;20187;-87
2022/04/28 08:10:04;;;;;;;9.10;8.30;;;14.20;74.40;;;;;;5082781;28;20252;-88
2022/04/28 08:12:30;;;;;;;8.87;7.97;;;14.30;73.40;;;;;;5075995;28;20286;-88
2022/04/28 08:14:55;;;;;;;9.53;8.03;;;14.50;73.80;;;;;;5070512;28;20202;-86
2022/04/28 08:17:21;;;;;;;8.53;7.83;;;14.60;73.40;;;;;;5070525;28;20231;-87
2022/04/28 08:19:47;;;;;;;8.50;7.80;;;14.80;72.80;;;;;;5071534;28;20233;-87
2022/04/28 08:22:12;;;;;;;7.83;7.10;;;14.90;70.80;;;;;;5078506;28;20549;-88
2022/04/28 08:24:38;;;;;;;8.10;7.23;;;15.10;71.70;;;;;;5094289;28;20192;-87
2022/04/28 08:27:04;;;;;;;7.57;6.87;;;15.30;70.20;;;;;;5100592;28;20277;-88
2022/04/28 08:29:30;;;;;;;6.93;6.23;;;15.40;69.30;;;;;;5110214;28;20183;-88
2022/04/28 08:31:55;;;;;;;6.43;5.83;;;15.60;66.20;;;;;;5100530;28;20187;-88
2022/04/28 08:34:22;;;;;;;6.70;6.10;;;15.90;62.30;;;;;;5078825;28;20244;-88
2022/04/28 08:36:49;;;;;;;6.13;5.63;;;16.00;61.10;;;;;;5081629;28;20285;-88
2022/04/28 08:39:15;;;;;;;6.57;5.97;;;16.20;58.70;;;;;;5078219;28;20209;-88
2022/04/28 08:41:45;;;;;;;5.97;5.47;;;16.20;60.20;;;;;;5094074;28;20195;-88
2022/04/28 08:44:18;;;;;;;6.00;5.50;;;16.30;58.50;;;;;;5078143;28;20195;-87
2022/04/28 08:46:52;;;;;;;5.50;5.00;;;16.60;56.80;;;;;;5078723;28;20292;-87
2022/04/28 08:49:28;;;;;;;4.77;4.37;;;16.80;54.30;;;;;;5088934;28;20173;-87
2022/04/28 08:51:56;;;;;;;5.30;4.80;;;17.00;49.40;;;;;;5082849;28;20183;-88
2022/04/28 08:54:24;;;;;;;5.23;4.73;;;17.20;50.20;;;;;;5078181;28;21288;-87
2022/04/28 08:56:51;;;;;;;5.10;4.70;;;17.30;47.40;;;;;;5084975;28;20212;-88
2022/04/28 08:59:21;;;;;;;5.07;4.67;;;17.40;47.60;;;;;;5093556;28;20189;-88
2022/04/28 09:01:47;;;;;;;5.33;4.70;;;17.60;46.30;;;;;;5085910;28;20210;-88
2022/04/28 09:04:13;;;;;;;5.23;4.73;;;17.50;44.70;;;;;;5093893;28;20644;-88
2022/04/28 09:06:41;;;;;;;4.73;4.30;;;17.70;45.10;;;;;;5090837;28;20206;-88
2022/04/28 09:09:09;;;;;;;5.97;4.70;;;17.60;44.00;;;;;;5055082;28;20698;-88
2022/04/28 09:11:37;;;;;;;6.87;4.47;;;17.90;44.90;;;;;;5071972;28;20213;-88
2022/04/28 09:14:12;;;;;;;5.80;4.23;;;18.10;43.70;;;;;;5074905;28;20248;-88
2022/04/28 09:16:45;;;;;;;4.23;3.93;;;18.30;40.00;;;;;;5073272;28;20303;-87
2022/04/28 09:19:19;;;;;;;4.65;4.25;;;18.40;39.00;;;;;;5075316;28;20189;-88
2022/04/28 09:21:46;;;;;;;4.13;3.70;;;18.50;39.70;;;;;;5077061;28;20189;-88
2022/04/28 09:24:14;;;;;;;5.43;3.90;;;18.60;36.90;;;;;;5084985;28;20287;-88
2022/04/28 09:26:41;;;;;;;5.13;4.47;;;18.50;37.30;;;;;;5074718;28;20204;-88
2022/04/28 09:29:12;;;;;;;5.03;4.53;;;18.60;36.60;;;;;;5073150;28;20594;-88
2022/04/28 09:31:39;;;;;;;6.43;4.30;;;18.40;36.90;;;;;;5081767;28;20202;-88
2022/04/28 09:34:13;;;;;;;4.83;3.80;;;18.60;35.60;;;;;;5080566;28;20274;-88
2022/04/28 09:36:40;;;;;;;4.45;4.05;;;18.80;36.00;;;;;;5077537;28;20216;-88
2022/04/28 09:42:29;;;;;;;4.32;3.88;;;19.00;36.20;;;;;;5083236;28;20725;-88
2022/04/28 09:42:46;;;;;;;6.15;4.18;;;19.30;36.20;;;;;;5072664;28;20190;-88
2022/04/28 09:44:49;;;;;;;4.88;4.47;;;19.20;36.50;;;;;;5068927;28;20652;-88
2022/04/28 09:47:15;;;;;;;4.57;3.90;;;19.40;35.00;;;;;;5079133;28;20207;-88
2022/04/28 09:49:41;;;;;;;4.53;4.07;;;19.60;33.90;;;;;;5081228;28;20191;-88
2022/04/28 09:52:09;;;;;;;4.40;4.00;;;19.50;35.20;;;;;;5079035;28;20187;-88
2022/04/28 09:54:36;;;;;;;4.82;4.40;;;19.40;33.30;;;;;;5072956;28;20219;-88
2022/04/28 09:57:03;;;;;;;3.75;3.45;;;19.50;34.10;;;;;;5092347;28;20191;-88
2022/04/28 09:59:30;;;;;;;5.57;4.70;;;19.60;35.00;;;;;;5093408;28;20174;-88
2022/04/28 10:01:58;;;;;;;6.88;4.53;;;19.90;34.10;;;;;;5072353;28;20179;-88
2022/04/28 10:04:24;;;;;;;4.60;4.20;;;19.90;33.20;;;;;;5069593;28;20214;-88
2022/04/28 10:06:50;;;;;;;4.75;4.25;;;20.20;33.20;;;;;;5084040;28;20216;-88
2022/04/28 10:09:17;;;;;;;4.57;4.18;;;20.30;32.40;;;;;;5088455;28;20187;-87
2022/04/28 10:11:43;;;;;;;4.43;4.03;;;20.60;32.50;;;;;;5084372;28;20270;-88
2022/04/28 10:14:12;;;;;;;4.53;4.10;;;20.60;31.70;;;;;;5092627;28;20202;-88
2022/04/28 10:16:41;;;;;;;4.28;3.95;;;20.60;31.70;;;;;;5078166;28;20211;-89
2022/04/28 10:19:19;;;;;;;4.30;3.88;;;20.70;31.90;;;;;;5071074;28;20176;-89
2022/04/28 10:22:01;;;;;;;7.45;3.72;;;20.80;31.70;;;;;;5072337;28;20163;-88
2022/04/28 10:33:11;;;;;;;4.82;3.80;;;21.20;30.00;;;;;;5082518;28;20723;-88
2022/04/28 10:35:49;;;;;;;4.22;3.83;;;21.50;30.00;;;;;;5070085;28;20220;-88
2022/04/28 10:38:26;;;;;;;4.47;4.07;;;21.50;29.50;;;;;;5072051;28;20212;-88
2022/04/28 10:40:57;;;;;;;4.03;3.65;;;21.20;28.10;;;;;;5089763;28;20743;-88
2022/04/28 10:43:32;;;;;;;3.60;3.30;;;21.20;29.10;;;;;;5092320;28;20183;-87
2022/04/28 10:46:01;;;;;;;4.32;3.92;;;21.40;27.40;;;;;;5095443;28;20257;-88
2022/04/28 10:48:43;;;;;;;3.92;3.15;;;21.50;28.50;;;;;;5060590;28;20660;-88
2022/04/28 10:51:17;;;;;;;3.83;3.53;;;21.70;27.20;;;;;;5091691;28;20191;-88
2022/04/28 10:53:58;;;;;;;6.60;4.28;;;21.90;28.00;;;;;;5073516;28;20747;-89
2022/04/28 10:56:25;;;;;;;3.80;3.55;;;22.00;28.00;;;;;;5096558;28;20426;-89
2022/04/28 10:58:55;;;;;;;4.00;3.60;;;21.70;28.10;;;;;;5092015;28;20178;-89
2022/04/28 11:01:31;;;;;;;4.38;3.53;;;21.80;28.60;;;;;;5078937;28;20203;-89
2022/04/28 11:04:02;;;;;;;4.82;4.07;;;22.20;27.90;;;;;;5071611;28;20170;-88
2022/04/28 11:06:37;;;;;;;4.75;4.45;;;22.30;27.90;;;;;;5072640;28;20214;-88
2022/04/28 11:09:04;;;;;;;4.80;4.07;;;22.50;27.70;;;;;;5088143;28;20193;-87
2022/04/28 11:11:45;;;;;;;4.38;3.97;;;22.10;27.90;;;;;;5082994;28;20190;-88
2022/04/28 11:14:12;;;;;;;5.82;4.50;;;22.30;28.00;;;;;;5072651;28;20191;-88
2022/04/28 11:16:43;;;;;;;4.72;3.75;;;22.70;28.80;;;;;;5079212;28;20681;-89
2022/04/28 11:19:10;;;;;;;4.32;3.95;;;22.80;28.00;;;;;;5082439;28;20190;-88
2022/04/28 11:21:39;;;;;;;4.78;3.92;;;22.80;27.60;;;;;;5071668;28;20182;-89
2022/04/28 11:24:06;;;;;;;4.45;4.15;;;23.00;28.30;;;;;;5082347;28;20183;-89
2022/04/28 11:26:32;;;;;;;5.32;3.70;;;23.10;29.10;;;;;;5087179;28;20199;-89
2022/04/28 11:29:08;;;;;;;4.07;3.78;;;23.40;29.10;;;;;;5058440;28;20187;-89
2022/04/28 11:31:47;;;;;;;4.82;4.43;;;23.70;28.00;;;;;;5073386;28;20190;-89
2022/04/28 11:34:13;;;;;;;4.63;4.32;;;23.90;28.00;;;;;;5070894;28;20222;-89
2022/04/28 11:36:41;;;;;;;8.80;5.00;;;23.80;27.30;;;;;;5073539;28;20204;-88
2022/04/28 11:39:08;;;;;;;4.15;3.80;;;23.70;27.70;;;;;;5073445;28;20549;-89
2022/04/28 11:41:41;;;;;;;106.65;22.45;;;23.50;28.50;;;;;;5074315;28;20175;-89
2022/04/28 11:44:09;;;;;;;5.00;4.38;;;23.50;28.80;;;;;;5088440;28;20202;-89
2022/04/28 11:46:41;;;;;;;4.13;3.90;;;23.40;28.90;;;;;;5078134;28;20698;-88
2022/04/28 11:49:07;;;;;;;4.60;4.20;;;23.70;28.30;;;;;;5088458;28;20199;-89
2022/04/28 11:51:34;;;;;;;4.85;4.45;;;23.70;28.80;;;;;;5086493;28;20182;-89
2022/04/28 11:54:01;;;;;;;5.22;4.72;;;23.90;28.70;;;;;;5070583;28;20203;-89
2022/04/28 11:56:31;;;;;;;4.50;4.20;;;23.90;27.50;;;;;;5093045;28;20221;-89
2022/04/28 11:59:00;;;;;;;4.72;4.32;;;24.10;28.50;;;;;;5075934;28;20194;-89
2022/04/28 12:01:31;;;;;;;6.95;4.65;;;24.10;29.10;;;;;;5084257;28;20921;-89
2022/04/28 12:03:58;;;;;;;6.70;4.00;;;24.20;28.90;;;;;;5091562;28;20189;-89
2022/04/28 12:06:25;;;;;;;5.47;5.00;;;24.40;29.60;;;;;;5074117;28;20286;-89
2022/04/28 12:14:21;;;;;;;4.97;4.68;;;24.60;29.80;;;;;;5073761;28;20534;-88
2022/04/28 12:14:34;;;;;;;5.50;4.22;;;24.10;29.00;;;;;;5076857;28;20253;-89
2022/04/28 12:19:56;;;;;;;5.32;4.82;;;24.50;29.90;;;;;;5094337;28;20279;-88
2022/04/28 12:22:28;;;;;;;5.72;5.28;;;24.60;29.60;;;;;;5074997;28;20266;-89
2022/04/28 12:24:54;;;;;;;5.35;4.95;;;24.40;29.80;;;;;;5091349;28;20661;-89
2022/04/28 12:27:20;;;;;;;5.55;5.05;;;24.60;27.80;;;;;;5082497;28;20294;-89
2022/04/28 12:29:54;;;;;;;5.28;4.88;;;24.70;29.40;;;;;;5075959;28;20672;-89
2022/04/28 12:32:21;;;;;;;5.03;4.60;;;25.20;28.30;;;;;;5087306;28;20178;-89
2022/04/28 12:35:02;;;;;;;4.93;4.55;;;25.60;27.10;;;;;;5103721;28;20760;-89
2022/04/28 12:37:28;;;;;;;5.47;4.90;;;25.30;28.40;;;;;;5077553;28;20187;-89
2022/04/28 12:39:59;;;;;;;5.50;5.00;;;25.00;27.50;;;;;;5091255;28;20179;-89
2022/04/28 12:42:29;;;;;;;5.65;5.15;;;25.10;28.10;;;;;;5105264;28;20222;-90
2022/04/28 12:45:00;;;;;;;5.70;5.20;;;25.30;27.50;;;;;;5104766;28;20211;-89
2022/04/28 12:47:38;;;;;;;5.22;4.78;;;25.40;28.20;;;;;;5073829;28;20293;-89
2022/04/28 12:50:19;;;;;;;5.30;4.90;;;25.50;27.80;;;;;;5074748;28;20171;-89
2022/04/28 12:52:45;;;;;;;5.47;5.07;;;25.50;28.20;;;;;;5056739;28;20180;-88
2022/04/28 12:55:11;;;;;;;5.00;4.68;;;25.30;28.20;;;;;;5084764;28;20286;-89
2022/04/28 12:57:37;;;;;;;5.60;5.20;;;25.40;28.60;;;;;;5095326;28;20707;-89
2022/04/28 13:00:07;;;;;;;5.40;4.90;;;25.60;28.30;;;;;;5063382;28;20203;-89
2022/04/28 13:02:33;;;;;;;5.40;4.90;;;26.00;27.80;;;;;;5085274;28;20206;-89
2022/04/28 13:05:18;;;;;;;9.32;5.85;;;26.40;27.10;;;;;;5090860;28;20179;-89
2022/04/28 13:07:44;;;;;;;5.30;4.90;;;26.30;26.90;;;;;;5075635;28;20702;-89
2022/04/28 13:10:15;;;;;;;7.55;5.25;;;26.20;27.90;;;;;;5092921;28;20178;-89
2022/04/28 13:12:41;;;;;;;5.25;4.88;;;26.20;26.40;;;;;;5059426;28;20187;-90
2022/04/28 13:15:11;;;;;;;5.57;5.18;;;26.50;26.00;;;;;;5075191;28;20183;-89
2022/04/28 13:17:37;;;;;;;5.32;4.90;;;26.80;25.90;;;;;;5071356;28;20763;-89